Time;durP1;ratioP1;P1;durP2;ratioP2;P2;SDS_P1;SDS_P2;PMS_P1;PMS_P2;Temp;Humidity;BMP_temperature;BMP_pressure;BME280_temperature;BME280_humidity;BME280_pressure;Samples;Min_cycle;Max_cycle;Signal;HPM_P1;HPM_P2
2021/06/21 00:00:01;;;;;;;9.60;8.10;;;;;;;20.84;69.78;100069.08;93058;1209;65499;-65
2021/06/21 00:02:12;;;;;;;8.70;8.00;;;;;;;20.85;69.84;100064.42;93085;1208;68965;-68
2021/06/21 00:04:20;;;;;;;9.40;8.30;;;;;;;20.84;69.80;100063.59;92972;1211;87196;-63
2021/06/21 00:06:28;;;;;;;8.60;7.70;;;;;;;20.85;70.06;100054.23;93019;1208;76392;-65
2021/06/21 00:08:36;;;;;;;10.30;8.00;;;;;;;20.89;70.14;100046.30;93064;1201;80547;-65
2021/06/21 00:10:44;;;;;;;9.20;8.30;;;;;;;20.89;70.11;100049.88;93049;1206;65626;-66
2021/06/21 00:12:52;;;;;;;8.80;7.80;;;;;;;20.90;70.35;100047.97;93012;1211;67787;-65
2021/06/21 00:15:00;;;;;;;9.00;8.20;;;;;;;20.91;70.29;100042.20;93001;1211;86588;-63
2021/06/21 00:17:08;;;;;;;10.40;7.80;;;;;;;20.93;70.20;100033.71;92998;1211;75254;-64
2021/06/21 00:19:16;;;;;;;8.10;7.40;;;;;;;20.92;70.29;100043.03;93027;1213;81007;-66
2021/06/21 00:21:24;;;;;;;8.80;7.40;;;;;;;20.92;70.18;100037.53;93048;1216;67293;-63
2021/06/21 00:23:32;;;;;;;10.50;7.80;;;;;;;20.92;70.13;100035.63;93076;1208;68323;-64
2021/06/21 00:25:43;;;;;;;9.90;8.40;;;;;;;20.87;70.46;100034.77;93037;1208;87127;-65
2021/06/21 00:27:52;;;;;;;10.20;8.00;;;;;;;20.82;70.44;100031.99;93037;1214;74251;-64
2021/06/21 00:29:59;;;;;;;8.70;7.80;;;;;;;20.83;70.44;100041.87;93033;1209;81934;-64
2021/06/21 00:32:11;;;;;;;9.00;7.80;;;;;;;20.81;70.26;100036.66;93064;1213;67195;-64
2021/06/21 00:34:21;;;;;;;8.70;7.90;;;;;;;20.82;70.37;100040.23;93067;1209;70084;-64
2021/06/21 00:36:29;;;;;;;9.30;7.40;;;;;;;20.78;70.52;100042.67;93086;1206;86015;-64
2021/06/21 00:38:40;;;;;;;8.70;7.90;;;;;;;20.78;70.60;100042.67;93054;1206;74363;-64
2021/06/21 00:40:48;;;;;;;9.20;8.40;;;;;;;20.73;70.68;100041.81;93052;1213;81965;-64
2021/06/21 00:42:58;;;;;;;10.10;7.90;;;;;;;20.70;70.81;100037.67;93062;1208;68585;-64
2021/06/21 00:45:11;;;;;;;11.10;8.90;;;;;;;20.71;70.93;100035.77;93056;1214;68967;-65
2021/06/21 00:47:19;;;;;;;8.50;7.60;;;;;;;20.71;71.04;100041.25;93089;1206;87371;-65
2021/06/21 00:49:26;;;;;;;9.60;8.00;;;;;;;20.71;71.20;100035.77;93039;1211;74188;-64
2021/06/21 00:51:37;;;;;;;8.60;7.80;;;;;;;20.69;71.08;100032.44;93033;1208;81278;-63
2021/06/21 00:53:46;;;;;;;8.90;7.80;;;;;;;20.67;71.39;100029.97;93039;1208;68119;-66
2021/06/21 00:55:54;;;;;;;8.50;7.70;;;;;;;20.64;71.26;100029.66;93045;1208;69615;-66
2021/06/21 00:58:05;;;;;;;8.90;8.10;;;;;;;20.63;71.37;100030.77;93042;1214;86899;-64
2021/06/21 01:00:17;;;;;;;9.90;8.40;;;;;;;20.62;71.34;100020.88;93055;1214;75178;-64
2021/06/21 01:02:26;;;;;;;8.90;8.00;;;;;;;20.60;71.36;100023.89;93055;1213;80953;-66
2021/06/21 01:04:33;;;;;;;11.30;8.80;;;;;;;20.59;71.27;100019.48;93055;1209;66598;-64
2021/06/21 01:06:41;;;;;;;11.80;8.60;;;;;;;20.56;71.49;100012.61;93053;1213;69210;-64
2021/06/21 01:08:49;;;;;;;9.80;7.60;;;;;;;20.55;71.60;100015.59;93060;1208;87677;-64
2021/06/21 01:10:58;;;;;;;8.90;7.90;;;;;;;20.52;71.42;100016.95;93047;1216;76043;-65
2021/06/21 01:13:41;;;;;;;8.70;7.70;;;;;;;20.53;71.52;100020.53;93068;1213;81051;-64
2021/06/21 01:16:01;;;;;;;9.90;8.70;;;;;;;20.48;71.64;100015.01;93040;1208;66516;-65
2021/06/21 01:18:14;;;;;;;9.10;8.00;;;;;;;20.45;71.67;100019.11;93034;1213;69278;-64
2021/06/21 01:20:56;;;;;;;8.40;7.70;;;;;;;20.38;71.65;100013.00;93038;1208;87671;-64
2021/06/21 01:24:23;;;;;;;8.60;7.80;;;;;;;20.33;71.91;100007.48;93038;1209;75246;-65
2021/06/21 01:26:42;;;;;;;9.20;8.20;;;;;;;20.27;71.93;100007.72;92843;1213;81907;-64
2021/06/21 01:29:30;;;;;;;9.20;8.40;;;;;;;20.17;72.04;100011.16;92806;1214;66807;-64
2021/06/21 01:31:55;;;;;;;9.50;8.00;;;;;;;20.12;72.05;100002.89;93009;1208;69371;-65
2021/06/21 01:34:03;;;;;;;11.20;7.90;;;;;;;20.09;72.18;100006.16;93043;1213;86897;-64
2021/06/21 01:36:15;;;;;;;9.40;8.50;;;;;;;20.08;72.39;100003.69;93082;1213;74718;-63
2021/06/21 01:38:29;;;;;;;9.50;8.40;;;;;;;20.06;72.60;99997.61;93083;1208;80827;-64
2021/06/21 01:40:43;;;;;;;10.00;9.10;;;;;;;20.05;72.64;100005.03;93027;1208;65864;-64
2021/06/21 01:42:58;;;;;;;9.90;8.40;;;;;;;20.05;72.87;100007.78;93080;1213;68906;-65
2021/06/21 01:45:10;;;;;;;11.00;8.10;;;;;;;20.02;72.76;100003.61;93068;1206;85877;-64
2021/06/21 01:47:23;;;;;;;9.30;8.20;;;;;;;19.99;72.81;100003.33;93087;1216;75271;-63
2021/06/21 01:49:36;;;;;;;9.00;8.10;;;;;;;19.96;72.95;99995.63;93062;1208;81849;-70
2021/06/21 01:51:45;;;;;;;8.80;8.00;;;;;;;19.93;72.94;99996.97;93067;1208;66345;-67
2021/06/21 01:53:57;;;;;;;9.90;8.40;;;;;;;19.87;72.78;100008.14;93037;1209;69435;-66
2021/06/21 01:56:11;;;;;;;9.40;8.40;;;;;;;19.85;72.92;100011.16;93083;1213;87131;-69
2021/06/21 01:58:21;;;;;;;9.00;7.90;;;;;;;19.86;72.93;100011.98;93053;1208;75549;-66
2021/06/21 02:00:30;;;;;;;8.60;7.80;;;;;;;19.85;73.04;100004.84;93042;1208;81750;-65
2021/06/21 02:02:38;;;;;;;9.20;8.30;;;;;;;19.83;73.28;100001.53;93068;1208;65886;-65
2021/06/21 02:04:47;;;;;;;10.50;8.10;;;;;;;19.80;73.21;100007.53;93044;1209;70023;-66
2021/06/21 02:06:55;;;;;;;9.70;8.60;;;;;;;19.73;73.31;100002.25;93067;1213;86783;-69
2021/06/21 02:09:07;;;;;;;11.30;9.10;;;;;;;19.72;73.40;100005.27;93047;1213;75617;-66
2021/06/21 02:11:17;;;;;;;10.40;9.10;;;;;;;19.69;73.61;100000.29;93090;1208;82428;-67
2021/06/21 02:13:26;;;;;;;9.50;8.50;;;;;;;19.64;73.56;100002.98;93077;1213;68295;-66
2021/06/21 02:15:37;;;;;;;12.00;9.90;;;;;;;19.59;73.75;99990.03;93061;1208;68954;-65
2021/06/21 02:17:45;;;;;;;10.20;9.20;;;;;;;19.57;73.83;99992.22;93048;1211;87244;-65
2021/06/21 02:19:57;;;;;;;10.20;9.10;;;;;;;19.53;73.58;99974.62;93035;1214;74278;-64
2021/06/21 02:22:06;;;;;;;9.90;8.80;;;;;;;19.50;73.73;99988.03;93037;1213;81085;-66
2021/06/21 02:24:18;;;;;;;9.60;8.70;;;;;;;19.48;73.78;99981.95;93056;1208;67556;-65
2021/06/21 02:26:27;;;;;;;12.00;8.90;;;;;;;19.47;73.98;99983.06;93011;1208;69091;-64
2021/06/21 02:28:37;;;;;;;10.50;8.90;;;;;;;19.50;74.05;99980.64;93109;1209;86874;-65
2021/06/21 02:30:45;;;;;;;11.40;10.20;;;;;;;19.53;74.07;99974.62;93194;1207;74119;-64
2021/06/21 02:32:53;;;;;;;11.60;9.60;;;;;;;19.50;74.28;99979.81;93141;1215;82166;-65
2021/06/21 02:35:01;;;;;;;11.90;9.40;;;;;;;19.48;74.26;99976.48;93088;1209;68507;-67
2021/06/21 02:37:09;;;;;;;10.10;9.20;;;;;;;19.50;74.12;99971.59;93127;1209;67384;-63
2021/06/21 02:39:20;;;;;;;12.60;10.40;;;;;;;19.53;74.40;99973.81;93146;1215;86411;-65
2021/06/21 02:41:28;;;;;;;11.10;9.80;;;;;;;19.55;74.47;99975.21;93140;1208;75045;-65
2021/06/21 02:43:36;;;;;;;11.30;9.60;;;;;;;19.54;74.55;99979.02;93163;1215;80321;-65
2021/06/21 02:45:44;;;;;;;10.30;9.30;;;;;;;19.55;74.75;99979.86;93134;1209;67249;-65
2021/06/21 02:47:52;;;;;;;10.40;8.80;;;;;;;19.57;74.54;99978.52;93094;1208;68303;-65
2021/06/21 02:50:04;;;;;;;10.70;9.70;;;;;;;19.60;74.61;99980.74;93112;1213;86671;-64
2021/06/21 02:52:27;;;;;;;11.30;10.10;;;;;;;19.65;74.79;99988.17;93157;1214;74231;-65
2021/06/21 02:55:07;;;;;;;11.60;9.90;;;;;;;19.62;74.83;99992.27;93098;1215;81438;-66
2021/06/21 02:57:27;;;;;;;10.50;9.40;;;;;;;19.62;74.88;99992.27;93128;1208;67826;-65
2021/06/21 02:59:44;;;;;;;10.60;9.30;;;;;;;19.68;74.57;99995.88;93099;1208;69197;-65
2021/06/21 03:01:56;;;;;;;10.40;9.40;;;;;;;19.67;74.61;99984.09;93138;1208;86676;-65
2021/06/21 03:04:06;;;;;;;10.50;9.50;;;;;;;19.65;74.70;99989.01;93147;1215;75018;-65
2021/06/21 03:06:16;;;;;;;11.00;9.40;;;;;;;19.70;74.59;99982.73;93138;1208;81485;-66
2021/06/21 03:08:25;;;;;;;11.30;9.90;;;;;;;19.75;74.52;99996.52;93116;1209;66717;-64
2021/06/21 03:10:39;;;;;;;11.30;9.50;;;;;;;19.76;74.67;99988.03;93117;1213;68907;-65
2021/06/21 03:12:49;;;;;;;12.70;8.90;;;;;;;19.83;74.68;99985.09;93181;1208;86212;-65
2021/06/21 03:14:59;;;;;;;10.20;9.20;;;;;;;19.92;74.62;99983.50;93121;1209;76461;-66
2021/06/21 03:17:09;;;;;;;10.40;9.40;;;;;;;20.08;74.74;99974.31;93108;1215;81291;-65
2021/06/21 03:19:18;;;;;;;10.80;9.80;;;;;;;20.25;74.76;99977.79;93160;1209;65394;-65
2021/06/21 03:21:26;;;;;;;11.20;10.00;;;;;;;20.40;74.87;99975.17;93160;1209;68654;-65
2021/06/21 03:23:35;;;;;;;12.30;9.20;;;;;;;20.60;74.72;99969.00;93159;1208;85977;-65
2021/06/21 03:25:43;;;;;;;11.20;8.30;;;;;;;20.80;74.46;99973.75;93075;1209;75967;-65
2021/06/21 03:27:50;;;;;;;12.10;8.30;;;;;;;21.09;74.47;99973.13;93113;1207;81248;-63
2021/06/21 03:29:59;;;;;;;11.70;8.20;;;;;;;21.54;74.20;99971.60;93090;1208;65267;-65
2021/06/21 03:32:29;;;;;;;11.40;6.70;;;;;;;22.40;73.62;99968.94;93130;1208;68549;-64
2021/06/21 03:34:38;;;;;;;7.90;6.80;;;;;;;23.83;71.90;99972.55;93113;1208;85385;-64
2021/06/21 03:36:46;;;;;;;8.00;6.30;;;;;;;24.82;70.38;99981.39;93044;1209;75306;-65
2021/06/21 03:38:54;;;;;;;7.30;6.50;;;;;;;25.71;68.46;99978.59;93108;1208;81668;-65
2021/06/21 03:41:04;;;;;;;7.90;6.10;;;;;;;26.49;67.42;99982.63;93155;1208;67631;-65
2021/06/21 03:43:15;;;;;;;7.00;5.20;;;;;;;27.17;65.21;99980.77;93177;1208;69497;-65
2021/06/21 03:45:26;;;;;;;10.20;5.00;;;;;;;27.92;63.43;99985.80;93104;1208;88109;-65
2021/06/21 03:47:35;;;;;;;7.70;5.50;;;;;;;28.45;61.99;99986.73;93068;1208;74731;-64
2021/06/21 03:49:45;;;;;;;8.50;4.70;;;;;;;28.92;60.52;99978.84;93024;1213;81060;-66
2021/06/21 03:51:52;;;;;;;6.50;4.70;;;;;;;29.54;58.98;99980.36;93116;1208;66362;-64
2021/06/21 03:54:00;;;;;;;7.60;4.50;;;;;;;30.09;57.43;99985.33;93085;1201;68219;-64
2021/06/21 03:56:11;;;;;;;13.00;4.50;;;;;;;30.57;55.67;99985.14;93134;1208;86596;-63
2021/06/21 03:58:18;;;;;;;5.40;4.30;;;;;;;30.81;54.24;99985.39;93138;1208;73953;-63
2021/06/21 04:00:29;;;;;;;4.80;4.00;;;;;;;31.22;52.66;99995.91;93085;1208;80917;-64
2021/06/21 04:02:36;;;;;;;8.60;4.20;;;;;;;31.45;52.02;100000.07;93127;1208;65451;-64
2021/06/21 04:04:44;;;;;;;6.60;4.00;;;;;;;31.63;50.83;99996.03;93110;1208;69246;-65
2021/06/21 04:06:55;;;;;;;7.40;4.30;;;;;;;31.94;50.07;99998.44;93138;1208;86324;-65
2021/06/21 04:09:02;;;;;;;5.90;4.40;;;;;;;32.38;48.48;99994.13;93125;1212;74678;-65
2021/06/21 04:11:13;;;;;;;8.40;3.90;;;;;;;32.55;47.66;99989.19;93123;1208;81064;-65
2021/06/21 04:13:22;;;;;;;4.60;3.60;;;;;;;32.89;46.61;99993.59;93018;1208;66397;-65
2021/06/21 04:15:31;;;;;;;8.70;4.50;;;;;;;33.07;46.37;99994.23;93149;1207;68711;-65
2021/06/21 04:17:40;;;;;;;7.90;4.50;;;;;;;33.28;46.15;99989.34;93066;1208;85581;-65
2021/06/21 04:19:48;;;;;;;6.30;4.20;;;;;;;33.47;45.19;99986.75;93132;1208;75900;-64
2021/06/21 04:21:56;;;;;;;4.70;3.40;;;;;;;33.78;44.24;99986.98;93124;1208;81510;-64
2021/06/21 04:24:04;;;;;;;5.10;3.40;;;;;;;34.28;42.54;99986.47;93054;1208;65640;-64
2021/06/21 04:26:14;;;;;;;6.90;3.20;;;;;;;34.72;41.56;99976.09;93174;1204;70039;-65
2021/06/21 04:28:22;;;;;;;5.60;3.00;;;;;;;34.97;40.52;99973.92;93168;1208;87577;-65
2021/06/21 04:30:30;;;;;;;6.80;3.30;;;;;;;35.48;39.58;99970.03;93057;1208;74201;-65
2021/06/21 04:32:38;;;;;;;6.90;3.30;;;;;;;35.64;39.03;99975.63;93117;1214;81306;-63
2021/06/21 04:34:46;;;;;;;4.60;3.10;;;;;;;35.87;38.07;99975.75;93099;1208;67138;-66
2021/06/21 04:36:56;;;;;;;6.00;3.40;;;;;;;35.93;37.29;99968.66;93051;1213;68594;-65
2021/06/21 04:39:04;;;;;;;4.30;3.30;;;;;;;36.21;36.81;99986.13;93124;1208;86577;-64
2021/06/21 04:41:11;;;;;;;6.80;3.20;;;;;;;36.37;36.02;99986.86;93158;1208;75640;-64
2021/06/21 04:43:22;;;;;;;5.70;3.30;;;;;;;36.33;36.02;99979.55;93123;1204;80186;-64
2021/06/21 04:45:30;;;;;;;4.50;2.90;;;;;;;36.53;34.90;99981.19;92991;1209;66188;-64
2021/06/21 04:47:38;;;;;;;8.80;3.30;;;;;;;36.54;34.61;99977.98;93148;1208;68977;-63
2021/06/21 04:49:48;;;;;;;7.00;3.20;;;;;;;36.96;34.60;99985.61;93129;1208;87081;-64
2021/06/21 04:51:56;;;;;;;4.70;3.40;;;;;;;37.49;33.81;99978.89;93123;1209;74937;-64
2021/06/21 04:54:05;;;;;;;4.70;3.30;;;;;;;37.54;32.63;99983.38;93121;1208;82444;-65
2021/06/21 04:56:13;;;;;;;5.20;3.00;;;;;;;38.00;32.85;99975.58;93054;1208;66597;-64
2021/06/21 04:58:21;;;;;;;4.20;2.90;;;;;;;38.31;32.00;99978.00;93097;1208;70148;-65
2021/06/21 05:00:31;;;;;;;6.80;3.10;;;;;;;38.70;31.96;99970.80;93147;1208;85855;-64
2021/06/21 05:02:39;;;;;;;7.90;3.10;;;;;;;38.83;30.56;99974.98;93116;1209;74513;-63
2021/06/21 05:04:47;;;;;;;5.40;3.50;;;;;;;39.08;30.85;99963.09;93101;1208;81160;-66
2021/06/21 05:06:55;;;;;;;5.90;3.50;;;;;;;39.02;30.45;99970.30;93134;1208;66663;-64
2021/06/21 05:09:03;;;;;;;4.80;3.10;;;;;;;38.80;30.27;99977.77;93147;1206;68377;-65
2021/06/21 05:11:11;;;;;;;5.20;2.80;;;;;;;39.33;30.24;99969.78;93134;1208;86129;-66
2021/06/21 05:13:19;;;;;;;5.80;3.40;;;;;;;39.61;29.42;99971.99;93163;1208;76899;-66
2021/06/21 05:15:27;;;;;;;3.90;2.70;;;;;;;39.82;29.02;99975.78;93007;1208;82685;-57
2021/06/21 05:17:35;;;;;;;4.60;3.00;;;;;;;39.87;28.73;99981.06;93101;1208;66829;-57
2021/06/21 05:19:46;;;;;;;6.40;3.30;;;;;;;39.64;28.71;99983.34;93066;1208;68074;-57
2021/06/21 05:21:57;;;;;;;5.20;2.50;;;;;;;39.64;28.58;99979.72;93090;1209;88323;-58
2021/06/21 05:24:05;;;;;;;5.50;3.00;;;;;;;40.03;28.58;99990.03;93108;1208;74755;-65
2021/06/21 05:26:13;;;;;;;4.20;2.70;;;;;;;40.19;28.11;99977.61;93071;1208;80355;-66
2021/06/21 05:28:21;;;;;;;6.00;2.70;;;;;;;40.38;27.28;99980.88;93194;1208;67198;-58
2021/06/21 05:30:30;;;;;;;4.40;2.60;;;;;;;40.08;27.62;99995.34;93153;1208;68897;-58
2021/06/21 05:32:38;;;;;;;5.90;3.20;;;;;;;40.57;26.96;99986.22;93155;1208;87160;-57
2021/06/21 05:34:48;;;;;;;8.00;3.30;;;;;;;40.67;27.03;99981.81;93136;1208;74882;-59
2021/06/21 05:36:57;;;;;;;5.20;2.40;;;;;;;40.91;26.82;99985.91;93099;1208;83380;-58
2021/06/21 05:39:05;;;;;;;7.00;2.80;;;;;;;41.59;25.56;99994.01;93143;1208;65632;-58
2021/06/21 05:41:12;;;;;;;7.30;3.00;;;;;;;41.69;24.99;99998.88;93150;1209;68557;-60
2021/06/21 05:43:20;;;;;;;6.50;2.70;;;;;;;41.70;25.66;100002.52;93032;1213;86206;-64
2021/06/21 05:45:28;;;;;;;5.90;2.70;;;;;;;42.02;25.08;100000.42;93050;1208;74019;-65
2021/06/21 05:47:35;;;;;;;10.10;3.30;;;;;;;41.94;25.02;100003.70;93121;1207;81512;-65
2021/06/21 05:49:43;;;;;;;5.70;2.60;;;;;;;41.83;24.94;100000.89;93018;1208;67830;-59
2021/06/21 05:51:51;;;;;;;6.20;2.60;;;;;;;41.89;24.94;100002.09;93144;1213;69301;-59
2021/06/21 05:53:59;;;;;;;4.30;2.30;;;;;;;41.78;25.24;99995.64;93138;1208;87403;-59
2021/06/21 05:56:07;;;;;;;8.40;2.70;;;;;;;41.99;25.48;100006.92;93141;1209;73868;-57
2021/06/21 05:58:15;;;;;;;22.60;19.30;;;;;;;42.24;25.11;99999.16;93148;1208;80518;-60
2021/06/21 06:00:25;;;;;;;11.30;6.40;;;;;;;42.49;24.44;99995.38;93114;1208;67487;-55
2021/06/21 06:02:33;;;;;;;13.20;10.90;;;;;;;42.29;24.47;100004.40;93185;1208;69556;-59
2021/06/21 06:04:40;;;;;;;5.30;4.00;;;;;;;42.40;24.41;100003.53;93135;1208;86672;-58
2021/06/21 06:06:51;;;;;;;7.90;3.40;;;;;;;42.34;24.59;100006.80;93174;1204;74459;-59
2021/06/21 06:09:01;;;;;;;6.00;2.70;;;;;;;42.26;24.71;100005.22;93009;1208;81419;-57
2021/06/21 06:11:09;;;;;;;4.50;2.50;;;;;;;42.51;24.93;100001.44;93117;1208;65527;-59
2021/06/21 06:13:20;;;;;;;8.50;3.20;;;;;;;42.47;24.92;100000.67;93044;1208;69527;-65
2021/06/21 06:15:28;;;;;;;5.30;2.40;;;;;;;42.07;24.47;100019.05;93128;1208;86376;-66
2021/06/21 06:17:35;;;;;;;9.60;3.20;;;;;;;42.40;24.60;100009.20;93122;1208;74633;-66
2021/06/21 06:19:44;;;;;;;6.30;2.80;;;;;;;42.84;24.22;100003.70;93170;1206;80730;-63
2021/06/21 06:21:51;;;;;;;6.80;3.10;;;;;;;42.80;24.17;100005.77;93101;1214;67138;-64
2021/06/21 06:24:02;;;;;;;7.90;3.30;;;;;;;42.53;23.90;99994.12;93131;1208;68334;-59
2021/06/21 06:26:10;;;;;;;11.70;4.30;;;;;;;42.84;24.11;99995.98;93124;1208;86044;-57
2021/06/21 06:28:18;;;;;;;15.30;3.90;;;;;;;42.82;24.10;99997.63;93042;1215;76384;-65
2021/06/21 06:30:27;;;;;;;7.50;3.00;;;;;;;42.81;23.90;99996.00;93135;1208;80929;-65
2021/06/21 06:32:36;;;;;;;10.00;2.90;;;;;;;42.69;23.91;99994.45;93088;1208;66527;-66
2021/06/21 06:34:43;;;;;;;9.80;3.70;;;;;;;42.94;23.82;100005.68;93104;1208;69346;-56
2021/06/21 06:36:52;;;;;;;13.30;4.70;;;;;;;42.98;22.99;99997.95;93077;1206;87223;-57
2021/06/21 06:38:59;;;;;;;12.20;4.00;;;;;;;43.12;23.12;99994.99;93146;1213;74419;-58
2021/06/21 06:41:07;;;;;;;13.00;3.60;;;;;;;43.01;22.25;99994.27;93051;1215;81467;-59
2021/06/21 06:43:15;;;;;;;11.10;3.70;;;;;;;42.96;22.98;99988.22;93077;1208;67548;-58
2021/06/21 06:45:24;;;;;;;9.60;3.10;;;;;;;43.16;22.90;99984.38;93133;1216;69274;-59
2021/06/21 06:47:32;;;;;;;13.80;3.60;;;;;;;43.40;22.45;99986.21;93128;1208;85323;-57
2021/06/21 06:49:40;;;;;;;14.50;3.20;;;;;;;43.40;22.67;99983.37;93155;1208;75504;-64
2021/06/21 06:51:50;;;;;;;10.40;3.10;;;;;;;43.42;22.41;99980.13;93146;1208;80651;-65
2021/06/21 06:54:04;;;;;;;10.50;4.10;;;;;;;43.43;21.92;99984.59;93102;1208;66305;-57
2021/06/21 06:58:37;;;;;;;8.20;3.70;;;;;;;43.38;22.75;99985.02;93131;1208;86144;-66
2021/06/21 07:00:44;;;;;;;14.20;3.50;;;;;;;43.69;21.64;99980.23;93130;1208;74234;-65
2021/06/21 07:02:52;;;;;;;10.50;3.40;;;;;;;43.59;21.78;99975.48;93007;1208;80200;-65
2021/06/21 07:05:04;;;;;;;11.60;3.10;;;;;;;43.39;21.80;99972.42;93021;1208;67087;-57
2021/06/21 07:07:12;;;;;;;12.70;3.30;;;;;;;43.48;22.21;99969.91;93210;1208;68728;-61
2021/06/21 07:09:20;;;;;;;12.20;3.70;;;;;;;43.88;21.45;99971.91;93049;1213;86259;-65
2021/06/21 07:11:29;;;;;;;8.80;3.00;;;;;;;43.44;21.71;99967.09;93027;1213;74799;-64
2021/06/21 07:13:37;;;;;;;14.40;3.20;;;;;;;43.52;21.18;99967.00;93126;1208;82091;-66
2021/06/21 07:15:44;;;;;;;10.00;3.50;;;;;;;43.29;21.79;99964.78;93141;1206;67058;-64
2021/06/21 07:17:52;;;;;;;10.60;3.20;;;;;;;43.35;21.16;99963.91;93132;1208;68609;-65
2021/06/21 07:20:03;;;;;;;11.90;3.60;;;;;;;43.58;21.46;99957.59;92994;1209;87152;-57
2021/06/21 07:22:11;;;;;;;12.10;3.20;;;;;;;43.48;21.44;99958.52;93165;1206;74407;-58
2021/06/21 07:24:19;;;;;;;15.20;3.50;;;;;;;43.81;21.12;99965.50;93119;1212;82375;-60
2021/06/21 07:26:27;;;;;;;8.70;2.90;;;;;;;43.66;21.26;99961.16;93135;1209;66927;-62
2021/06/21 07:28:36;;;;;;;11.70;3.00;;;;;;;43.52;20.87;99950.73;93198;1209;69314;-57
2021/06/21 07:30:43;;;;;;;7.00;2.80;;;;;;;43.24;20.91;99963.17;93036;1208;87219;-57
2021/06/21 07:32:52;;;;;;;9.40;2.60;;;;;;;42.85;20.41;99960.66;93149;1216;75199;-56
2021/06/21 07:35:04;;;;;;;11.20;3.20;;;;;;;42.61;21.12;99961.63;93031;1209;81532;-65
2021/06/21 07:37:10;;;;;;;;;;;;;;;42.42;21.39;99962.12;93055;1213;66420;-65
2021/06/21 07:39:18;;;;;;;9.70;2.50;;;;;;;42.59;21.59;99966.11;93097;1208;68391;-65
2021/06/21 07:41:26;;;;;;;8.10;2.70;;;;;;;42.46;21.33;99957.23;93056;1211;85646;-68
2021/06/21 07:43:34;;;;;;;7.80;2.90;;;;;;;42.11;22.11;99974.44;93081;1208;75254;-63
2021/06/21 07:45:43;;;;;;;9.90;2.90;;;;;;;42.24;21.46;99959.39;92999;1216;82013;-66
2021/06/21 07:47:52;;;;;;;8.80;3.10;;;;;;;42.51;21.61;99964.50;93167;1208;66968;-65
2021/06/21 07:50:00;;;;;;;9.40;3.50;;;;;;;42.58;21.31;99959.61;93143;1208;68473;-65
2021/06/21 07:52:10;;;;;;;7.90;2.50;;;;;;;42.20;20.95;99958.59;93169;1208;87824;-65
2021/06/21 07:54:19;;;;;;;11.70;2.40;;;;;;;41.86;21.56;99965.20;93042;1213;74739;-65
2021/06/21 07:56:27;;;;;;;10.00;2.90;;;;;;;42.32;22.07;99963.00;93158;1208;81995;-67
2021/06/21 07:58:37;;;;;;;10.50;3.20;;;;;;;42.52;21.92;99957.61;93146;1209;65266;-58
2021/06/21 08:00:46;;;;;;;12.10;2.60;;;;;;;42.91;21.35;99958.15;93062;1208;68948;-59
2021/06/21 08:02:55;;;;;;;9.50;2.40;;;;;;;43.15;21.45;99968.56;93025;1208;85407;-58
2021/06/21 08:05:03;;;;;;;10.10;2.90;;;;;;;42.88;20.78;99964.70;93080;1209;75048;-66
2021/06/21 08:07:11;;;;;;;11.20;3.50;;;;;;;42.61;21.24;99963.68;93099;1209;81779;-66
2021/06/21 08:09:22;;;;;;;10.10;3.10;;;;;;;42.59;21.60;99957.58;93120;1208;67588;-64
2021/06/21 08:11:29;;;;;;;11.40;3.30;;;;;;;42.47;20.91;99963.73;93092;1208;68954;-67
2021/06/21 08:13:37;;;;;;;7.80;2.60;;;;;;;42.43;21.62;99962.94;93094;1206;86750;-77
2021/06/21 08:15:45;;;;;;;11.30;3.40;;;;;;;42.64;21.25;99957.95;93203;1203;74923;-74
2021/06/21 08:17:52;;;;;;;11.90;2.70;;;;;;;42.72;21.12;99955.86;93025;1213;81307;-71
2021/06/21 08:20:04;;;;;;;9.70;3.30;;;;;;;42.58;21.55;99951.09;93139;1209;65931;-71
2021/06/21 08:22:16;;;;;;;10.20;3.30;;;;;;;42.78;21.24;99946.48;93083;1208;70611;-71
2021/06/21 08:24:28;;;;;;;8.40;2.80;;;;;;;42.43;21.01;99943.05;93050;1216;87454;-61
2021/06/21 08:26:39;;;;;;;7.60;3.10;;;;;;;42.30;21.55;99937.86;93156;1208;74522;-57
2021/06/21 08:28:49;;;;;;;8.90;2.80;;;;;;;42.37;21.83;99936.18;93150;1208;82183;-57
2021/06/21 08:30:57;;;;;;;9.20;3.00;;;;;;;42.45;21.47;99932.07;93099;1209;65053;-57
2021/06/21 08:33:08;;;;;;;7.40;2.40;;;;;;;42.26;21.35;99933.41;93127;1215;68097;-58
2021/06/21 08:35:16;;;;;;;9.80;3.70;;;;;;;41.93;21.20;99939.62;93021;1211;86884;-59
2021/06/21 08:37:25;;;;;;;9.10;2.80;;;;;;;41.66;21.72;99942.94;93173;1209;73538;-60
2021/06/21 08:39:32;;;;;;;8.80;2.70;;;;;;;41.41;21.22;99941.37;93137;1208;80409;-57
